Bass River, Massachusetts
Current Conditions -  °F | °C
As of 11:56 AM on Thursday 23 Oct 2014 (Local Time) from KHYA Reporting Station
Overcast Overcast  
Wind Chill: 16°   Ceiling: 2100
Heat Index: 16°   Visibility: 10mi
Dew Point: 14°   Wind: 7mph
Humidity: 87%   Direction: 10°N
Pressure: 29.53"   Gusts: NA
Location:  41.6739°N, 70.1961°W
Report Text: KHYA 231556Z 01006KT 10SM OVC021 16/14 A2953 RMK AO2 SLP001 T01610139
Loading
Personal Weather Stations






























Interactive Weather Map
Tropical Storm Tracking
New forecast layout! Learn more

10-Day Weather Forecast

Advertisements
Track Severe Weather on mobile